sensor_id;sensor_type;location;lat;lon;timestamp;pressure;altitude;pressure_sealevel;temperature;humidity
30724;BME280;17473;52.286;20.930;2024-03-17T00:02:15;100320.25;;;7.54;88.77
30724;BME280;17473;52.286;20.930;2024-03-17T00:04:42;100323.44;;;7.66;87.98
30724;BME280;17473;52.286;20.930;2024-03-17T00:07:08;100326.34;;;7.72;87.56
30724;BME280;17473;52.286;20.930;2024-03-17T00:09:34;100332.38;;;7.50;88.56
30724;BME280;17473;52.286;20.930;2024-03-17T00:12:00;100332.38;;;7.50;88.28
30724;BME280;17473;52.286;20.930;2024-03-17T00:14:26;100333.47;;;7.55;88.32
30724;BME280;17473;52.286;20.930;2024-03-17T00:16:55;100328.75;;;7.48;87.77
30724;BME280;17473;52.286;20.930;2024-03-17T00:19:23;100342.72;;;7.47;88.20
30724;BME280;17473;52.286;20.930;2024-03-17T00:21:50;100340.59;;;7.38;88.02
30724;BME280;17473;52.286;20.930;2024-03-17T00:24:19;100334.78;;;7.45;88.15
30724;BME280;17473;52.286;20.930;2024-03-17T00:26:47;100334.06;;;7.49;88.15
30724;BME280;17473;52.286;20.930;2024-03-17T00:29:13;100335.97;;;7.52;87.80
30724;BME280;17473;52.286;20.930;2024-03-17T00:31:41;100343.56;;;7.46;87.12
30724;BME280;17473;52.286;20.930;2024-03-17T00:34:07;100333.13;;;7.28;84.18
30724;BME280;17473;52.286;20.930;2024-03-17T00:36:34;100335.09;;;7.14;82.82
30724;BME280;17473;52.286;20.930;2024-03-17T00:39:00;100344.09;;;7.39;81.01
30724;BME280;17473;52.286;20.930;2024-03-17T00:41:26;100342.09;;;7.33;80.83
30724;BME280;17473;52.286;20.930;2024-03-17T00:43:52;100339.59;;;7.16;80.99
30724;BME280;17473;52.286;20.930;2024-03-17T00:46:21;100346.84;;;7.22;80.04
30724;BME280;17473;52.286;20.930;2024-03-17T00:48:48;100352.22;;;7.05;80.81
30724;BME280;17473;52.286;20.930;2024-03-17T00:51:16;100356.09;;;7.14;78.21
30724;BME280;17473;52.286;20.930;2024-03-17T00:53:42;100361.69;;;7.02;77.84
30724;BME280;17473;52.286;20.930;2024-03-17T00:56:08;100352.75;;;6.98;77.37
30724;BME280;17473;52.286;20.930;2024-03-17T00:58:35;100358.81;;;6.97;77.15
30724;BME280;17473;52.286;20.930;2024-03-17T01:01:01;100354.84;;;7.05;76.74
30724;BME280;17473;52.286;20.930;2024-03-17T01:03:27;100360.19;;;6.89;77.91
30724;BME280;17473;52.286;20.930;2024-03-17T01:05:54;100359.66;;;6.96;77.42
30724;BME280;17473;52.286;20.930;2024-03-17T01:08:20;100349.91;;;6.94;77.15
30724;BME280;17473;52.286;20.930;2024-03-17T01:10:47;100352.09;;;6.84;76.92
30724;BME280;17473;52.286;20.930;2024-03-17T01:13:17;100357.56;;;6.89;77.05
30724;BME280;17473;52.286;20.930;2024-03-17T01:15:44;100373.97;;;6.85;75.36
30724;BME280;17473;52.286;20.930;2024-03-17T01:18:10;100373.50;;;6.39;77.11
30724;BME280;17473;52.286;20.930;2024-03-17T01:20:37;100375.59;;;6.47;77.05
30724;BME280;17473;52.286;20.930;2024-03-17T01:23:05;100369.63;;;6.49;76.82
30724;BME280;17473;52.286;20.930;2024-03-17T01:25:32;100372.09;;;6.46;76.73
30724;BME280;17473;52.286;20.930;2024-03-17T01:28:05;100362.13;;;6.39;77.74
30724;BME280;17473;52.286;20.930;2024-03-17T01:30:32;100363.69;;;6.53;77.01
30724;BME280;17473;52.286;20.930;2024-03-17T01:33:01;100357.88;;;6.24;77.98
30724;BME280;17473;52.286;20.930;2024-03-17T01:35:27;100372.16;;;6.30;78.15
30724;BME280;17473;52.286;20.930;2024-03-17T01:37:54;100371.44;;;6.16;78.96
30724;BME280;17473;52.286;20.930;2024-03-17T01:40:20;100368.72;;;6.14;79.44
30724;BME280;17473;52.286;20.930;2024-03-17T01:42:47;100366.22;;;5.99;79.33
30724;BME280;17473;52.286;20.930;2024-03-17T01:45:32;100372.00;;;6.10;78.81
30724;BME280;17473;52.286;20.930;2024-03-17T01:48:03;100370.50;;;5.99;79.28
30724;BME280;17473;52.286;20.930;2024-03-17T01:50:37;100374.31;;;6.04;78.92
30724;BME280;17473;52.286;20.930;2024-03-17T01:53:06;100373.28;;;6.00;79.21
30724;BME280;17473;52.286;20.930;2024-03-17T01:55:35;100372.59;;;5.88;78.85
30724;BME280;17473;52.286;20.930;2024-03-17T01:58:04;100382.25;;;5.89;78.51
30724;BME280;17473;52.286;20.930;2024-03-17T02:00:33;100376.50;;;6.13;77.86
30724;BME280;17473;52.286;20.930;2024-03-17T02:03:06;100371.78;;;5.89;79.63
30724;BME280;17473;52.286;20.930;2024-03-17T02:05:32;100370.84;;;5.88;79.87
30724;BME280;17473;52.286;20.930;2024-03-17T02:08:00;100383.13;;;5.89;80.32
30724;BME280;17473;52.286;20.930;2024-03-17T02:10:26;100379.31;;;5.83;80.24
30724;BME280;17473;52.286;20.930;2024-03-17T02:12:53;100387.56;;;5.90;79.90
30724;BME280;17473;52.286;20.930;2024-03-17T02:15:19;100378.47;;;5.84;79.97
30724;BME280;17473;52.286;20.930;2024-03-17T02:17:45;100378.22;;;5.79;80.19
30724;BME280;17473;52.286;20.930;2024-03-17T02:20:11;100384.47;;;5.81;80.27
30724;BME280;17473;52.286;20.930;2024-03-17T02:22:38;100375.44;;;5.92;80.12
30724;BME280;17473;52.286;20.930;2024-03-17T02:25:04;100387.44;;;6.04;79.91
30724;BME280;17473;52.286;20.930;2024-03-17T02:27:37;100391.69;;;5.85;80.11
30724;BME280;17473;52.286;20.930;2024-03-17T02:30:05;100389.38;;;6.08;79.25
30724;BME280;17473;52.286;20.930;2024-03-17T02:32:35;100379.13;;;5.96;79.95
30724;BME280;17473;52.286;20.930;2024-03-17T02:35:02;100396.13;;;6.03;78.82
30724;BME280;17473;52.286;20.930;2024-03-17T02:37:28;100388.31;;;5.71;79.39
30724;BME280;17473;52.286;20.930;2024-03-17T02:39:54;100402.22;;;5.87;78.31
30724;BME280;17473;52.286;20.930;2024-03-17T02:42:20;100397.72;;;5.84;78.09
30724;BME280;17473;52.286;20.930;2024-03-17T02:44:46;100396.00;;;5.68;78.88
30724;BME280;17473;52.286;20.930;2024-03-17T02:47:12;100399.28;;;5.80;78.39
30724;BME280;17473;52.286;20.930;2024-03-17T02:49:40;100402.72;;;5.63;78.91
30724;BME280;17473;52.286;20.930;2024-03-17T02:52:10;100403.78;;;5.50;79.36
30724;BME280;17473;52.286;20.930;2024-03-17T02:54:38;100404.78;;;5.85;78.37
30724;BME280;17473;52.286;20.930;2024-03-17T02:57:06;100408.47;;;5.56;78.55
30724;BME280;17473;52.286;20.930;2024-03-17T02:59:33;100396.25;;;5.56;79.20
30724;BME280;17473;52.286;20.930;2024-03-17T03:02:00;100408.22;;;5.68;77.98
30724;BME280;17473;52.286;20.930;2024-03-17T03:04:27;100403.94;;;5.53;78.20
30724;BME280;17473;52.286;20.930;2024-03-17T03:06:53;100407.47;;;5.70;76.79
30724;BME280;17473;52.286;20.930;2024-03-17T03:09:19;100409.59;;;5.61;76.68
30724;BME280;17473;52.286;20.930;2024-03-17T03:11:59;100409.91;;;5.67;77.51
30724;BME280;17473;52.286;20.930;2024-03-17T03:14:27;100402.97;;;5.68;76.98
30724;BME280;17473;52.286;20.930;2024-03-17T03:16:53;100414.66;;;5.58;77.75
30724;BME280;17473;52.286;20.930;2024-03-17T03:19:19;100411.41;;;5.45;78.74
30724;BME280;17473;52.286;20.930;2024-03-17T03:21:46;100412.69;;;5.37;79.21
30724;BME280;17473;52.286;20.930;2024-03-17T03:24:15;100407.56;;;5.24;80.61
30724;BME280;17473;52.286;20.930;2024-03-17T03:26:41;100415.13;;;5.34;80.40
30724;BME280;17473;52.286;20.930;2024-03-17T03:29:08;100403.03;;;5.36;80.54
30724;BME280;17473;52.286;20.930;2024-03-17T03:31:36;100400.66;;;5.24;80.76
30724;BME280;17473;52.286;20.930;2024-03-17T03:34:02;100409.06;;;5.19;81.58
30724;BME280;17473;52.286;20.930;2024-03-17T03:36:29;100405.13;;;5.27;81.43
30724;BME280;17473;52.286;20.930;2024-03-17T03:38:55;100393.91;;;5.13;82.12
30724;BME280;17473;52.286;20.930;2024-03-17T03:41:23;100401.00;;;5.15;82.77
30724;BME280;17473;52.286;20.930;2024-03-17T03:43:50;100397.88;;;5.06;83.46
30724;BME280;17473;52.286;20.930;2024-03-17T03:46:17;100398.63;;;5.04;84.09
30724;BME280;17473;52.286;20.930;2024-03-17T03:48:43;100393.28;;;5.02;84.60
30724;BME280;17473;52.286;20.930;2024-03-17T03:51:10;100400.44;;;4.90;85.57
30724;BME280;17473;52.286;20.930;2024-03-17T03:53:37;100390.88;;;4.90;86.29
30724;BME280;17473;52.286;20.930;2024-03-17T03:56:05;100389.91;;;4.88;86.44
30724;BME280;17473;52.286;20.930;2024-03-17T03:58:34;100397.63;;;5.01;86.26
30724;BME280;17473;52.286;20.930;2024-03-17T04:01:08;100397.19;;;4.94;86.84
30724;BME280;17473;52.286;20.930;2024-03-17T04:03:35;100398.34;;;4.99;87.28
30724;BME280;17473;52.286;20.930;2024-03-17T04:06:08;100389.78;;;4.86;87.67
30724;BME280;17473;52.286;20.930;2024-03-17T04:08:38;100390.97;;;4.92;88.35
30724;BME280;17473;52.286;20.930;2024-03-17T04:11:08;100393.97;;;4.83;88.55
30724;BME280;17473;52.286;20.930;2024-03-17T04:13:35;100401.63;;;4.80;88.55
30724;BME280;17473;52.286;20.930;2024-03-17T04:16:04;100398.56;;;4.87;88.57
30724;BME280;17473;52.286;20.930;2024-03-17T04:18:31;100383.84;;;4.89;88.12
30724;BME280;17473;52.286;20.930;2024-03-17T04:21:05;100401.72;;;4.81;88.48
30724;BME280;17473;52.286;20.930;2024-03-17T04:23:33;100401.19;;;4.87;87.97
30724;BME280;17473;52.286;20.930;2024-03-17T04:26:00;100395.16;;;4.73;88.52
30724;BME280;17473;52.286;20.930;2024-03-17T04:28:27;100394.69;;;4.80;88.55
30724;BME280;17473;52.286;20.930;2024-03-17T04:31:01;100393.41;;;4.89;87.09
30724;BME280;17473;52.286;20.930;2024-03-17T04:33:27;100402.13;;;5.04;86.48
30724;BME280;17473;52.286;20.930;2024-03-17T04:35:53;100406.56;;;4.90;85.73
30724;BME280;17473;52.286;20.930;2024-03-17T04:38:19;100409.69;;;5.14;84.54
30724;BME280;17473;52.286;20.930;2024-03-17T04:40:46;100410.25;;;4.94;83.64
30724;BME280;17473;52.286;20.930;2024-03-17T04:43:12;100409.41;;;4.78;83.33
30724;BME280;17473;52.286;20.930;2024-03-17T04:45:38;100399.66;;;4.76;82.95
30724;BME280;17473;52.286;20.930;2024-03-17T04:48:04;100404.75;;;4.89;83.03
30724;BME280;17473;52.286;20.930;2024-03-17T04:50:30;100405.69;;;4.90;83.26
30724;BME280;17473;52.286;20.930;2024-03-17T04:52:59;100405.47;;;5.01;82.48
30724;BME280;17473;52.286;20.930;2024-03-17T04:55:26;100409.19;;;4.90;82.45
30724;BME280;17473;52.286;20.930;2024-03-17T04:57:52;100413.19;;;4.83;82.77
30724;BME280;17473;52.286;20.930;2024-03-17T05:00:18;100400.53;;;4.91;82.92
30724;BME280;17473;52.286;20.930;2024-03-17T05:02:48;100399.38;;;4.86;82.82
30724;BME280;17473;52.286;20.930;2024-03-17T05:05:14;100407.84;;;4.97;82.43
30724;BME280;17473;52.286;20.930;2024-03-17T05:07:40;100407.56;;;4.92;82.59
30724;BME280;17473;52.286;20.930;2024-03-17T05:10:06;100409.47;;;5.26;81.46
30724;BME280;17473;52.286;20.930;2024-03-17T05:12:33;100406.13;;;4.97;81.83
30724;BME280;17473;52.286;20.930;2024-03-17T05:14:59;100401.75;;;5.13;81.96
30724;BME280;17473;52.286;20.930;2024-03-17T05:17:25;100412.13;;;5.11;81.94
30724;BME280;17473;52.286;20.930;2024-03-17T05:19:51;100412.19;;;5.28;81.34
30724;BME280;17473;52.286;20.930;2024-03-17T05:22:17;100409.72;;;5.31;81.56
30724;BME280;17473;52.286;20.930;2024-03-17T05:24:43;100405.72;;;5.38;82.20
30724;BME280;17473;52.286;20.930;2024-03-17T05:27:09;100419.25;;;5.45;82.01
30724;BME280;17473;52.286;20.930;2024-03-17T05:29:35;100407.16;;;5.64;81.71
30724;BME280;17473;52.286;20.930;2024-03-17T05:32:04;100404.75;;;5.52;83.59
30724;BME280;17473;52.286;20.930;2024-03-17T05:34:31;100413.66;;;5.39;84.67
30724;BME280;17473;52.286;20.930;2024-03-17T05:36:58;100406.53;;;5.37;85.52
30724;BME280;17473;52.286;20.930;2024-03-17T05:39:24;100411.13;;;5.41;86.54
30724;BME280;17473;52.286;20.930;2024-03-17T05:41:51;100403.97;;;6.03;84.03
30724;BME280;17473;52.286;20.930;2024-03-17T05:44:17;100409.88;;;6.50;80.78
30724;BME280;17473;52.286;20.930;2024-03-17T05:46:43;100410.28;;;8.28;74.59
30724;BME280;17473;52.286;20.930;2024-03-17T05:49:10;100419.28;;;9.40;69.25
30724;BME280;17473;52.286;20.930;2024-03-17T05:51:36;100420.53;;;9.05;66.00
30724;BME280;17473;52.286;20.930;2024-03-17T05:54:02;100408.09;;;10.17;62.97
30724;BME280;17473;52.286;20.930;2024-03-17T05:56:28;100412.94;;;9.58;63.73
30724;BME280;17473;52.286;20.930;2024-03-17T05:58:55;100414.66;;;10.53;60.88
30724;BME280;17473;52.286;20.930;2024-03-17T06:01:21;100403.75;;;10.20;61.62
30724;BME280;17473;52.286;20.930;2024-03-17T06:03:48;100412.28;;;9.18;64.41
30724;BME280;17473;52.286;20.930;2024-03-17T06:06:14;100408.63;;;10.09;62.03
30724;BME280;17473;52.286;20.930;2024-03-17T06:08:40;100411.03;;;8.66;65.84
30724;BME280;17473;52.286;20.930;2024-03-17T06:11:06;100414.97;;;8.35;67.91
30724;BME280;17473;52.286;20.930;2024-03-17T06:13:34;100400.06;;;8.14;68.89
30724;BME280;17473;52.286;20.930;2024-03-17T06:16:03;100404.25;;;8.50;66.63
30724;BME280;17473;52.286;20.930;2024-03-17T06:18:30;100410.53;;;8.34;66.49
30724;BME280;17473;52.286;20.930;2024-03-17T06:20:56;100417.66;;;8.77;64.96
30724;BME280;17473;52.286;20.930;2024-03-17T06:23:26;100415.56;;;8.28;66.91
30724;BME280;17473;52.286;20.930;2024-03-17T06:25:55;100417.94;;;8.02;67.50
30724;BME280;17473;52.286;20.930;2024-03-17T06:28:22;100417.69;;;8.17;66.81
30724;BME280;17473;52.286;20.930;2024-03-17T06:30:59;100421.25;;;8.58;65.04
30724;BME280;17473;52.286;20.930;2024-03-17T06:33:26;100411.03;;;8.25;65.13
30724;BME280;17473;52.286;20.930;2024-03-17T06:35:54;100407.72;;;8.29;65.43
30724;BME280;17473;52.286;20.930;2024-03-17T06:38:20;100413.00;;;8.10;65.42
30724;BME280;17473;52.286;20.930;2024-03-17T06:40:51;100417.31;;;7.68;67.02
30724;BME280;17473;52.286;20.930;2024-03-17T06:43:17;100422.53;;;7.49;67.53
30724;BME280;17473;52.286;20.930;2024-03-17T06:45:44;100426.03;;;7.30;68.32
30724;BME280;17473;52.286;20.930;2024-03-17T06:48:18;100425.25;;;7.14;69.37
30724;BME280;17473;52.286;20.930;2024-03-17T06:50:44;100422.41;;;7.28;68.87
30724;BME280;17473;52.286;20.930;2024-03-17T06:53:10;100426.84;;;7.66;67.67
30724;BME280;17473;52.286;20.930;2024-03-17T06:55:37;100426.47;;;7.59;67.49
30724;BME280;17473;52.286;20.930;2024-03-17T06:58:03;100425.31;;;7.72;67.54
30724;BME280;17473;52.286;20.930;2024-03-17T07:00:29;100427.19;;;7.36;68.29
30724;BME280;17473;52.286;20.930;2024-03-17T07:02:55;100430.84;;;7.40;68.07
30724;BME280;17473;52.286;20.930;2024-03-17T07:05:21;100417.34;;;7.70;66.93
30724;BME280;17473;52.286;20.930;2024-03-17T07:07:47;100428.34;;;7.81;67.03
30724;BME280;17473;52.286;20.930;2024-03-17T07:10:13;100418.75;;;7.62;66.51
30724;BME280;17473;52.286;20.930;2024-03-17T07:12:42;100424.00;;;7.06;68.52
30724;BME280;17473;52.286;20.930;2024-03-17T07:15:09;100429.84;;;7.18;67.66
30724;BME280;17473;52.286;20.930;2024-03-17T07:17:37;100407.34;;;7.05;68.65
30724;BME280;17473;52.286;20.930;2024-03-17T07:20:03;100434.34;;;7.21;68.54
30724;BME280;17473;52.286;20.930;2024-03-17T07:22:34;100432.91;;;7.28;68.43
30724;BME280;17473;52.286;20.930;2024-03-17T07:25:00;100437.50;;;6.96;69.33
30724;BME280;17473;52.286;20.930;2024-03-17T07:27:29;100440.03;;;7.68;66.85
30724;BME280;17473;52.286;20.930;2024-03-17T07:29:55;100442.50;;;7.45;67.51
30724;BME280;17473;52.286;20.930;2024-03-17T07:32:21;100442.34;;;7.42;67.31
30724;BME280;17473;52.286;20.930;2024-03-17T07:34:49;100445.97;;;7.08;68.80
30724;BME280;17473;52.286;20.930;2024-03-17T07:37:16;100440.88;;;7.29;68.19
30724;BME280;17473;52.286;20.930;2024-03-17T07:39:43;100442.66;;;7.30;67.78
30724;BME280;17473;52.286;20.930;2024-03-17T07:42:09;100435.09;;;7.74;66.17
30724;BME280;17473;52.286;20.930;2024-03-17T07:44:35;100446.13;;;7.47;67.25
30724;BME280;17473;52.286;20.930;2024-03-17T07:47:01;100442.47;;;7.83;66.37
30724;BME280;17473;52.286;20.930;2024-03-17T07:49:30;100442.13;;;7.38;66.90
30724;BME280;17473;52.286;20.930;2024-03-17T07:51:57;100445.34;;;7.32;68.27
30724;BME280;17473;52.286;20.930;2024-03-17T07:54:27;100443.38;;;7.64;67.49
30724;BME280;17473;52.286;20.930;2024-03-17T07:56:53;100441.66;;;7.84;66.86
30724;BME280;17473;52.286;20.930;2024-03-17T07:59:19;100448.78;;;7.87;66.73
30724;BME280;17473;52.286;20.930;2024-03-17T08:01:45;100442.28;;;8.18;64.80
30724;BME280;17473;52.286;20.930;2024-03-17T08:04:12;100440.38;;;8.54;63.41
30724;BME280;17473;52.286;20.930;2024-03-17T08:06:41;100428.19;;;8.37;64.38
30724;BME280;17473;52.286;20.930;2024-03-17T08:09:08;100434.00;;;9.13;62.36
30724;BME280;17473;52.286;20.930;2024-03-17T08:11:35;100437.00;;;9.22;61.30
30724;BME280;17473;52.286;20.930;2024-03-17T08:14:02;100446.56;;;9.64;60.98
30724;BME280;17473;52.286;20.930;2024-03-17T08:16:28;100437.41;;;9.10;61.41
30724;BME280;17473;52.286;20.930;2024-03-17T08:18:56;100439.59;;;10.13;59.67
30724;BME280;17473;52.286;20.930;2024-03-17T08:21:22;100441.09;;;9.59;60.24
30724;BME280;17473;52.286;20.930;2024-03-17T08:23:48;100440.34;;;9.39;61.38
30724;BME280;17473;52.286;20.930;2024-03-17T08:26:15;100443.34;;;8.83;61.36
30724;BME280;17473;52.286;20.930;2024-03-17T08:28:41;100438.28;;;8.88;62.10
30724;BME280;17473;52.286;20.930;2024-03-17T08:31:07;100441.97;;;8.51;62.44
30724;BME280;17473;52.286;20.930;2024-03-17T08:33:34;100446.75;;;8.40;62.71
30724;BME280;17473;52.286;20.930;2024-03-17T08:36:04;100441.28;;;8.55;63.20
30724;BME280;17473;52.286;20.930;2024-03-17T08:38:32;100441.50;;;7.81;64.54
30724;BME280;17473;52.286;20.930;2024-03-17T08:41:07;100439.50;;;8.34;63.12
30724;BME280;17473;52.286;20.930;2024-03-17T08:43:35;100443.38;;;8.23;63.85
30724;BME280;17473;52.286;20.930;2024-03-17T08:46:07;100443.78;;;8.32;63.65
30724;BME280;17473;52.286;20.930;2024-03-17T08:48:40;100451.03;;;8.57;62.87
30724;BME280;17473;52.286;20.930;2024-03-17T08:51:08;100443.97;;;8.37;62.84
30724;BME280;17473;52.286;20.930;2024-03-17T08:53:35;100436.50;;;8.26;63.21
30724;BME280;17473;52.286;20.930;2024-03-17T08:56:03;100441.38;;;8.17;63.77
30724;BME280;17473;52.286;20.930;2024-03-17T08:58:29;100441.88;;;7.89;64.34
30724;BME280;17473;52.286;20.930;2024-03-17T09:00:55;100439.19;;;8.07;64.31
30724;BME280;17473;52.286;20.930;2024-03-17T09:03:22;100442.44;;;8.01;65.32
30724;BME280;17473;52.286;20.930;2024-03-17T09:05:48;100448.78;;;8.06;65.07
30724;BME280;17473;52.286;20.930;2024-03-17T09:08:21;100456.13;;;7.74;67.93
30724;BME280;17473;52.286;20.930;2024-03-17T09:10:52;100455.84;;;7.50;68.17
30724;BME280;17473;52.286;20.930;2024-03-17T09:13:23;100455.97;;;7.33;69.75
30724;BME280;17473;52.286;20.930;2024-03-17T09:16:00;100457.59;;;7.31;70.46
30724;BME280;17473;52.286;20.930;2024-03-17T09:18:32;100460.19;;;6.77;72.98
30724;BME280;17473;52.286;20.930;2024-03-17T09:21:03;100450.78;;;6.81;73.59
30724;BME280;17473;52.286;20.930;2024-03-17T09:23:30;100449.81;;;6.79;75.08
30724;BME280;17473;52.286;20.930;2024-03-17T09:26:08;100450.16;;;6.68;75.82
30724;BME280;17473;52.286;20.930;2024-03-17T09:28:35;100451.22;;;6.72;74.99
30724;BME280;17473;52.286;20.930;2024-03-17T09:31:02;100452.06;;;6.54;76.92
30724;BME280;17473;52.286;20.930;2024-03-17T09:33:31;100451.47;;;6.95;75.29
30724;BME280;17473;52.286;20.930;2024-03-17T09:36:02;100456.78;;;7.70;73.90
30724;BME280;17473;52.286;20.930;2024-03-17T09:38:30;100462.88;;;7.69;72.39
30724;BME280;17473;52.286;20.930;2024-03-17T09:40:56;100464.78;;;7.35;73.08
30724;BME280;17473;52.286;20.930;2024-03-17T09:43:34;100448.00;;;7.32;72.63
30724;BME280;17473;52.286;20.930;2024-03-17T09:46:04;100450.75;;;8.10;71.20
30724;BME280;17473;52.286;20.930;2024-03-17T09:48:31;100458.13;;;7.99;70.76
30724;BME280;17473;52.286;20.930;2024-03-17T09:51:00;100462.44;;;7.60;71.09
30724;BME280;17473;52.286;20.930;2024-03-17T09:53:34;100457.91;;;8.34;68.11
30724;BME280;17473;52.286;20.930;2024-03-17T09:56:06;100459.03;;;8.00;69.09
30724;BME280;17473;52.286;20.930;2024-03-17T09:58:34;100447.31;;;8.52;67.41
30724;BME280;17473;52.286;20.930;2024-03-17T10:01:01;100466.38;;;8.07;68.33
30724;BME280;17473;52.286;20.930;2024-03-17T10:03:41;100456.81;;;8.29;67.66
30724;BME280;17473;52.286;20.930;2024-03-17T10:06:30;100459.38;;;7.88;68.51
30724;BME280;17473;52.286;20.930;2024-03-17T10:08:59;100448.16;;;8.32;67.17
30724;BME280;17473;52.286;20.930;2024-03-17T10:11:35;100470.00;;;7.72;69.23
30724;BME280;17473;52.286;20.930;2024-03-17T10:14:08;100467.63;;;7.58;68.84
30724;BME280;17473;52.286;20.930;2024-03-17T10:16:38;100462.38;;;7.58;69.19
30724;BME280;17473;52.286;20.930;2024-03-17T10:19:16;100468.28;;;7.34;69.30
30724;BME280;17473;52.286;20.930;2024-03-17T10:21:47;100463.53;;;7.09;70.37
30724;BME280;17473;52.286;20.930;2024-03-17T10:24:29;100457.22;;;7.24;70.17
30724;BME280;17473;52.286;20.930;2024-03-17T10:27:01;100466.47;;;7.33;69.35
30724;BME280;17473;52.286;20.930;2024-03-17T10:32:03;100459.03;;;7.43;69.39
30724;BME280;17473;52.286;20.930;2024-03-17T10:34:31;100455.69;;;7.65;68.71
30724;BME280;17473;52.286;20.930;2024-03-17T10:37:15;100468.94;;;7.48;69.35
30724;BME280;17473;52.286;20.930;2024-03-17T10:39:44;100464.66;;;7.32;70.04
30724;BME280;17473;52.286;20.930;2024-03-17T10:42:12;100458.16;;;7.24;70.25
30724;BME280;17473;52.286;20.930;2024-03-17T10:44:41;100466.25;;;7.66;69.63
30724;BME280;17473;52.286;20.930;2024-03-17T10:47:24;100469.09;;;7.33;70.79
30724;BME280;17473;52.286;20.930;2024-03-17T10:49:54;100473.28;;;7.12;71.87
30724;BME280;17473;52.286;20.930;2024-03-17T10:52:23;100462.25;;;7.19;72.09
30724;BME280;17473;52.286;20.930;2024-03-17T10:54:53;100463.16;;;7.01;72.75
30724;BME280;17473;52.286;20.930;2024-03-17T11:00:04;100463.75;;;7.32;72.55
30724;BME280;17473;52.286;20.930;2024-03-17T11:02:32;100466.38;;;7.32;71.01
30724;BME280;17473;52.286;20.930;2024-03-17T11:07:49;100469.03;;;7.14;69.52
30724;BME280;17473;52.286;20.930;2024-03-17T11:10:34;100474.00;;;7.08;69.66
30724;BME280;17473;52.286;20.930;2024-03-17T11:13:02;100466.53;;;7.35;69.41
30724;BME280;17473;52.286;20.930;2024-03-17T11:21:07;100468.19;;;7.51;66.42
30724;BME280;17473;52.286;20.930;2024-03-17T11:23:42;100477.53;;;7.46;66.33
30724;BME280;17473;52.286;20.930;2024-03-17T11:26:08;100473.88;;;7.42;66.31
30724;BME280;17473;52.286;20.930;2024-03-17T11:28:45;100478.78;;;7.34;67.83
30724;BME280;17473;52.286;20.930;2024-03-17T11:31:41;100471.63;;;7.32;67.84
30724;BME280;17473;52.286;20.930;2024-03-17T11:34:37;100481.47;;;7.00;67.43
30724;BME280;17473;52.286;20.930;2024-03-17T11:37:06;100492.13;;;7.21;66.31
30724;BME280;17473;52.286;20.930;2024-03-17T11:39:55;100486.88;;;7.03;66.91
30724;BME280;17473;52.286;20.930;2024-03-17T11:42:26;100486.44;;;6.94;68.20
30724;BME280;17473;52.286;20.930;2024-03-17T11:45:13;100497.16;;;7.16;68.40
30724;BME280;17473;52.286;20.930;2024-03-17T11:47:42;100494.16;;;7.27;67.38
30724;BME280;17473;52.286;20.930;2024-03-17T11:50:10;100483.66;;;7.27;67.58
30724;BME280;17473;52.286;20.930;2024-03-17T11:52:39;100473.28;;;7.12;68.94
30724;BME280;17473;52.286;20.930;2024-03-17T11:55:18;100476.22;;;7.36;68.35
30724;BME280;17473;52.286;20.930;2024-03-17T11:57:45;100479.84;;;7.58;67.75
30724;BME280;17473;52.286;20.930;2024-03-17T12:00:24;100486.91;;;7.59;67.07
30724;BME280;17473;52.286;20.930;2024-03-17T12:02:50;100478.69;;;7.33;68.21
30724;BME280;17473;52.286;20.930;2024-03-17T12:05:16;100479.19;;;7.62;66.09
30724;BME280;17473;52.286;20.930;2024-03-17T12:07:46;100481.16;;;7.66;66.56
30724;BME280;17473;52.286;20.930;2024-03-17T12:10:13;100484.91;;;7.91;66.30
30724;BME280;17473;52.286;20.930;2024-03-17T12:12:47;100477.56;;;7.83;65.40
30724;BME280;17473;52.286;20.930;2024-03-17T12:15:18;100481.63;;;7.77;65.43
30724;BME280;17473;52.286;20.930;2024-03-17T12:17:46;100464.56;;;7.49;65.79
30724;BME280;17473;52.286;20.930;2024-03-17T12:20:20;100469.22;;;7.36;66.49
30724;BME280;17473;52.286;20.930;2024-03-17T12:22:47;100461.47;;;7.95;64.72
30724;BME280;17473;52.286;20.930;2024-03-17T12:25:19;100464.22;;;8.18;63.93
30724;BME280;17473;52.286;20.930;2024-03-17T12:27:47;100469.13;;;8.30;63.45
30724;BME280;17473;52.286;20.930;2024-03-17T12:30:15;100467.34;;;8.29;62.95
30724;BME280;17473;52.286;20.930;2024-03-17T12:32:43;100465.59;;;7.52;64.81
30724;BME280;17473;52.286;20.930;2024-03-17T12:35:14;100464.13;;;7.77;66.29
30724;BME280;17473;52.286;20.930;2024-03-17T12:37:44;100450.44;;;7.65;67.81
30724;BME280;17473;52.286;20.930;2024-03-17T12:40:23;100464.94;;;8.14;66.08
30724;BME280;17473;52.286;20.930;2024-03-17T12:42:51;100466.56;;;7.92;66.94
30724;BME280;17473;52.286;20.930;2024-03-17T12:45:22;100464.78;;;8.11;65.95
30724;BME280;17473;52.286;20.930;2024-03-17T12:47:50;100459.09;;;8.21;65.43
30724;BME280;17473;52.286;20.930;2024-03-17T12:50:17;100451.41;;;8.26;65.31
30724;BME280;17473;52.286;20.930;2024-03-17T12:52:53;100458.53;;;7.89;65.57
30724;BME280;17473;52.286;20.930;2024-03-17T12:55:20;100452.66;;;7.95;65.06
30724;BME280;17473;52.286;20.930;2024-03-17T12:58:07;100445.53;;;8.12;63.72
30724;BME280;17473;52.286;20.930;2024-03-17T13:00:59;100447.97;;;8.07;63.38
30724;BME280;17473;52.286;20.930;2024-03-17T13:03:28;100445.66;;;7.76;63.98
30724;BME280;17473;52.286;20.930;2024-03-17T13:05:55;100457.28;;;8.01;62.99
30724;BME280;17473;52.286;20.930;2024-03-17T13:08:21;100442.34;;;7.99;63.11
30724;BME280;17473;52.286;20.930;2024-03-17T13:10:47;100451.25;;;7.64;63.73
30724;BME280;17473;52.286;20.930;2024-03-17T13:13:13;100457.06;;;7.57;64.62